Elbert, West Virginia
Current Conditions -  °F | °C
As of 11:52 AM on Thursday 30 Oct 2014 (Local Time) from KBLF Reporting Station
Overcast Overcast  
Wind Chill: 44°   Ceiling: 2400
Heat Index: 47°   Visibility: 10mi
Dew Point: 34°   Wind: 7mph
Humidity: 61%   Direction: NA
Pressure: 30.1"   Gusts: NA
Location:  37.34°N, 81.54°W
Report Text: KBLF 301552Z AUTO VRB06KT 10SM OVC024 08/01 A3010 RMK AO2 SLP188 T00830011
Loading
Personal Weather Stations






























Interactive Weather Map
Tropical Storm Tracking
New forecast layout! Learn more

10-Day Weather Forecast

Advertisements
Track Severe Weather on mobile